Time;durP1;ratioP1;P1;durP2;ratioP2;P2;SDS_P1;SDS_P2;PMS_P1;PMS_P2;Temp;Humidity;BMP_temperature;BMP_pressure;BME280_temperature;BME280_humidity;BME280_pressure;Samples;Min_cycle;Max_cycle;Signal;HPM_P1;HPM_P2
2022/01/10 06:01:15;;;;;;;42.20;23.25;;;;;;;1.15;100.00;99496.03;1687673;83;21087;-45
2022/01/10 06:03:43;;;;;;;36.55;20.90;;;;;;;1.19;100.00;99504.30;1669686;85;21015;-39
2022/01/10 06:06:10;;;;;;;38.60;20.35;;;;;;;1.23;100.00;99510.41;1683282;84;21039;-40
2022/01/10 06:08:39;;;;;;;36.35;20.52;;;;;;;1.24;100.00;99513.02;1652649;85;21487;-39
2022/01/10 06:11:06;;;;;;;36.98;20.80;;;;;;;1.26;100.00;99515.63;1679525;84;21082;-38
2022/01/10 06:13:37;;;;;;;32.25;18.20;;;;;;;1.26;100.00;99520.78;1694394;83;21031;-39
2022/01/10 06:16:05;;;;;;;31.15;17.87;;;;;;;1.26;100.00;99522.94;1679360;83;21082;-45
2022/01/10 06:18:35;;;;;;;28.85;17.30;;;;;;;1.24;100.00;99525.03;1698548;83;21027;-45
2022/01/10 06:21:02;;;;;;;28.30;14.85;;;;;;;1.21;100.00;99528.81;1710045;81;20993;-41
2022/01/10 06:23:28;;;;;;;27.85;16.12;;;;;;;1.18;100.00;99533.48;1717372;81;20958;-45
2022/01/10 06:25:56;;;;;;;24.65;15.38;;;;;;;1.17;100.00;99536.90;1739757;81;21029;-45
2022/01/10 06:28:23;;;;;;;23.27;14.53;;;;;;;1.19;100.00;99542.95;1729800;81;21025;-45
2022/01/10 06:30:52;;;;;;;20.32;13.10;;;;;;;1.20;100.00;99547.27;1730938;81;20982;-45
2022/01/10 06:33:19;;;;;;;26.23;15.53;;;;;;;1.24;100.00;99545.66;1733207;81;21501;-50
2022/01/10 06:35:46;;;;;;;37.65;21.70;;;;;;;1.25;100.00;99548.68;1735791;81;21029;-45
2022/01/10 06:38:13;;;;;;;25.02;15.38;;;;;;;1.27;100.00;99549.58;1731336;81;21211;-45
2022/01/10 06:40:41;;;;;;;39.30;23.05;;;;;;;1.32;100.00;99555.73;1731314;81;21036;-45
2022/01/10 06:43:09;;;;;;;50.33;25.88;;;;;;;1.38;100.00;99561.03;1733449;81;21509;-45
2022/01/10 06:45:38;;;;;;;33.92;18.35;;;;;;;1.43;100.00;99562.02;1731094;81;20994;-46
2022/01/10 06:48:05;;;;;;;19.73;11.03;;;;;;;1.47;100.00;99567.72;1730468;81;21636;-46
2022/01/10 06:50:34;;;;;;;15.90;9.28;;;;;;;1.47;100.00;99574.16;1730570;81;20974;-46
2022/01/10 06:53:02;;;;;;;16.25;9.13;;;;;;;1.46;100.00;99572.84;1736217;81;21029;-46
2022/01/10 06:55:30;;;;;;;14.13;8.23;;;;;;;1.46;100.00;99567.69;1736560;81;20985;-46
2022/01/10 06:57:59;;;;;;;9.80;6.72;;;;;;;1.46;100.00;99571.56;1734126;81;21053;-45
2022/01/10 07:00:26;;;;;;;13.20;8.63;;;;;;;1.47;100.00;99571.59;1729637;81;20973;-37
2022/01/10 07:02:55;;;;;;;14.28;7.83;;;;;;;1.46;100.00;99580.58;1712262;81;21544;-39
2022/01/10 07:05:22;;;;;;;14.28;8.75;;;;;;;1.43;100.00;99581.78;1708154;81;21029;-39
2022/01/10 07:07:52;;;;;;;13.25;8.93;;;;;;;1.42;100.00;99584.77;1709916;82;21075;-46
2022/01/10 07:10:29;;;;;;;16.45;8.93;;;;;;;1.41;100.00;99586.91;1708426;81;21545;-44
2022/01/10 07:12:57;;;;;;;16.25;8.43;;;;;;;1.42;100.00;99589.06;1707297;82;21083;-44
2022/01/10 07:15:26;;;;;;;17.35;9.10;;;;;;;1.42;100.00;99589.93;1706183;82;21054;-37
2022/01/10 07:17:54;;;;;;;15.23;8.98;;;;;;;1.39;100.00;99591.13;1706170;81;21073;-44
2022/01/10 07:20:29;;;;;;;18.20;9.28;;;;;;;1.36;100.00;99594.93;1704464;81;21528;-38
2022/01/10 07:22:58;;;;;;;12.65;8.80;;;;;;;1.35;100.00;99598.34;1712283;81;22132;-45
2022/01/10 07:25:25;;;;;;;21.37;9.88;;;;;;;1.33;100.00;99599.99;1706656;81;21009;-37
2022/01/10 07:27:53;;;;;;;18.70;9.60;;;;;;;1.32;100.00;99595.67;1711478;82;21604;-37
2022/01/10 07:30:58;;;;;;;16.05;9.38;;;;;;;1.33;100.00;99599.99;1691876;82;21531;-38
2022/01/10 07:34:18;;;;;;;18.50;9.85;;;;;;;1.36;100.00;99602.66;1714439;81;21943;-38
2022/01/10 07:36:57;;;;;;;21.30;10.90;;;;;;;1.41;100.00;99612.68;1708530;81;21532;-37
2022/01/10 07:39:24;;;;;;;23.20;11.30;;;;;;;1.47;100.00;99608.97;1709777;81;21625;-39
2022/01/10 07:41:55;;;;;;;27.48;11.48;;;;;;;1.50;100.00;99606.88;1716153;81;21032;-46
2022/01/10 07:44:24;;;;;;;29.52;13.80;;;;;;;1.52;100.00;99610.38;1713285;81;21080;-39
2022/01/10 07:46:55;;;;;;;26.65;11.57;;;;;;;1.55;100.00;99611.73;1709633;82;21088;-45
2022/01/10 07:49:23;;;;;;;29.60;13.93;;;;;;;1.56;100.00;99613.05;1682684;81;21004;-44
2022/01/10 07:51:51;;;;;;;34.58;13.60;;;;;;;1.57;100.00;99615.23;1709904;81;21655;-46
2022/01/10 07:54:18;;;;;;;35.30;13.65;;;;;;;1.57;100.00;99614.82;1713177;81;21028;-45
2022/01/10 07:56:44;;;;;;;37.60;15.60;;;;;;;1.60;100.00;99622.61;1711666;81;21544;-46
2022/01/10 07:59:11;;;;;;;28.32;14.33;;;;;;;1.62;100.00;99625.64;1702012;81;21058;-38
2022/01/10 08:01:38;;;;;;;34.43;14.28;;;;;;;1.60;100.00;99634.22;1713337;81;21572;-38
2022/01/10 08:04:05;;;;;;;31.57;13.25;;;;;;;1.59;100.00;99629.03;1740448;80;21044;-44
2022/01/10 08:06:32;;;;;;;35.83;13.93;;;;;;;1.57;100.00;99635.87;1737081;81;21049;-38
2022/01/10 08:09:06;;;;;;;38.90;16.45;;;;;;;1.54;100.00;99639.22;1737755;81;21033;-38
2022/01/10 08:11:30;;;;;;;31.27;14.18;;;;;;;1.49;100.00;99643.38;1731696;81;21075;-38
2022/01/10 08:14:41;;;;;;;28.77;14.13;;;;;;;1.45;100.00;99654.47;1689866;81;21111;-46
2022/01/10 08:17:44;;;;;;;38.70;15.80;;;;;;;1.42;100.00;99649.64;1730388;81;21006;-47
2022/01/10 08:29:51;;;;;;;32.78;16.67;;;;;;;1.26;100.00;99662.53;1732194;81;20969;-38
2022/01/10 08:37:12;;;;;;;38.58;17.87;;;;;;;1.17;100.00;99669.61;1731290;81;21038;-45
2022/01/10 08:40:35;;;;;;;53.28;21.50;;;;;;;1.17;100.00;99670.02;1736002;81;21074;-37
2022/01/10 08:43:48;;;;;;;50.58;21.27;;;;;;;1.15;100.00;99672.95;1734786;81;20985;-45
2022/01/10 08:46:13;;;;;;;49.42;20.62;;;;;;;1.14;100.00;99672.08;1732666;81;21061;-38
2022/01/10 08:48:40;;;;;;;53.23;22.15;;;;;;;1.13;100.00;99672.05;1735063;81;20981;-38
2022/01/10 08:51:08;;;;;;;57.62;22.58;;;;;;;1.13;100.00;99675.91;1734061;81;21029;-38
2022/01/10 08:53:36;;;;;;;47.80;23.20;;;;;;;1.08;100.00;99672.33;1734998;81;21400;-38
2022/01/10 08:56:03;;;;;;;41.55;20.60;;;;;;;1.05;100.00;99682.16;1732322;81;21094;-38
2022/01/10 08:58:32;;;;;;;39.18;20.02;;;;;;;1.02;100.00;99679.05;1734459;81;20942;-38
2022/01/10 09:01:04;;;;;;;43.38;21.82;;;;;;;1.00;100.00;99682.02;1737999;81;21052;-44
2022/01/10 09:03:32;;;;;;;36.20;18.75;;;;;;;1.02;100.00;99685.91;1719514;81;21045;-45
2022/01/10 09:05:59;;;;;;;27.52;16.62;;;;;;;1.02;100.00;99691.06;1713623;82;21029;-44
2022/01/10 09:08:31;;;;;;;34.60;18.87;;;;;;;1.01;100.00;99690.61;1707725;82;21413;-44
2022/01/10 09:11:05;;;;;;;35.38;18.45;;;;;;;1.01;100.00;99690.61;1714983;82;21044;-38
2022/01/10 09:13:33;;;;;;;36.50;20.95;;;;;;;1.02;100.00;99682.92;1709621;82;21455;-38
2022/01/10 09:16:02;;;;;;;35.58;18.57;;;;;;;1.04;100.00;99689.39;1711529;82;21563;-44
2022/01/10 09:18:29;;;;;;;33.35;18.52;;;;;;;1.06;100.00;99682.60;1695605;82;21060;-39
2022/01/10 09:20:57;;;;;;;36.45;19.62;;;;;;;1.09;100.00;99682.67;1713453;82;21005;-37
2022/01/10 09:23:33;;;;;;;30.48;18.90;;;;;;;1.09;100.00;99686.54;1708931;81;21545;-45
2022/01/10 09:30:23;;;;;;;34.00;19.85;;;;;;;1.07;100.00;99689.50;1712867;82;21008;-45
2022/01/10 09:34:26;;;;;;;31.85;18.30;;;;;;;1.08;100.00;99683.51;1709434;82;21064;-45
2022/01/10 09:37:22;;;;;;;34.88;19.15;;;;;;;1.09;100.00;99685.25;1714166;82;21012;-45
2022/01/10 09:40:31;;;;;;;34.90;20.85;;;;;;;1.05;100.00;99686.02;1711298;82;21423;-45
2022/01/10 09:43:34;;;;;;;31.05;19.87;;;;;;;1.05;100.00;99689.46;1713640;82;21649;-45
2022/01/10 09:46:21;;;;;;;22.77;15.75;;;;;;;1.05;100.00;99683.02;1700294;82;21119;-45
2022/01/10 09:48:47;;;;;;;33.60;20.10;;;;;;;1.08;100.00;99684.80;1712091;82;20965;-45
2022/01/10 09:51:14;;;;;;;31.55;20.48;;;;;;;1.07;100.00;99684.34;1712626;81;21135;-45
2022/01/10 09:53:47;;;;;;;33.98;20.90;;;;;;;1.04;100.00;99676.13;1716562;82;20989;-45
2022/01/10 09:56:14;;;;;;;34.65;20.05;;;;;;;1.04;100.00;99668.78;1711300;82;21027;-45
2022/01/10 09:58:41;;;;;;;33.08;20.60;;;;;;;1.02;100.00;99672.61;1713293;82;21434;-45
2022/01/10 10:01:08;;;;;;;32.03;20.50;;;;;;;1.01;100.00;99673.45;1710988;82;23002;-45
2022/01/10 10:03:35;;;;;;;37.78;20.90;;;;;;;1.01;100.00;99672.58;1696846;81;20954;-39
2022/01/10 10:06:02;;;;;;;35.58;21.65;;;;;;;1.01;100.00;99672.58;1711007;81;22005;-37
2022/01/10 10:08:31;;;;;;;32.93;19.52;;;;;;;0.99;100.00;99671.67;1727143;81;20997;-37
2022/01/10 10:10:58;;;;;;;30.85;19.20;;;;;;;0.98;100.00;99665.62;1726991;81;21600;-45
2022/01/10 10:13:33;;;;;;;35.98;21.50;;;;;;;0.98;100.00;99668.20;1658953;81;21062;-44
2022/01/10 10:16:06;;;;;;;30.65;18.75;;;;;;;0.97;100.00;99670.32;1669020;81;21037;-39
2022/01/10 10:22:39;;;;;;;35.73;21.62;;;;;;;0.97;100.00;99672.02;1724623;81;21655;-46
2022/01/10 10:29:28;;;;;;;36.70;21.90;;;;;;;0.96;100.00;99684.03;1727790;81;21151;-45
2022/01/10 10:46:37;;;;;;;45.90;23.12;;;;;;;0.73;100.00;99685.07;1728295;81;21115;-44
2022/01/10 10:49:35;;;;;;;43.92;22.60;;;;;;;0.71;100.00;99690.60;1694939;83;21013;-39
2022/01/10 10:52:56;;;;;;;43.95;22.30;;;;;;;0.70;100.00;99704.31;1667816;84;21070;-45
2022/01/10 10:55:47;;;;;;;40.83;21.37;;;;;;;0.68;100.00;99707.23;1668439;84;21019;-46
2022/01/10 10:58:44;;;;;;;41.33;22.87;;;;;;;0.66;100.00;99707.19;1687098;83;21051;-45
2022/01/10 11:02:11;;;;;;;41.60;23.00;;;;;;;0.69;100.00;99708.55;1664529;84;21109;-45
2022/01/10 11:04:43;;;;;;;40.55;20.80;;;;;;;0.73;100.00;99716.84;1681435;83;21716;-40
2022/01/10 11:07:22;;;;;;;34.43;19.67;;;;;;;0.74;100.00;99709.57;1649187;83;21128;-38
2022/01/10 11:13:56;;;;;;;35.45;20.48;;;;;;;0.69;100.00;99717.98;1681777;83;20462;-47
2022/01/10 11:20:47;;;;;;;41.95;21.65;;;;;;;0.64;100.00;99724.69;1726623;81;21013;-47
2022/01/10 11:27:41;;;;;;;53.75;26.85;;;;;;;0.56;100.00;99725.75;1730279;81;21101;-40
2022/01/10 11:31:19;;;;;;;59.05;27.17;;;;;;;0.51;100.00;99724.31;1729784;81;20965;-40
2022/01/10 11:35:07;;;;;;;;;;;;;;;0.51;100.00;99723.45;1732737;81;21006;-40
2022/01/10 11:37:40;;;;;;;61.63;32.08;;;;;;;0.49;100.00;99725.98;1732906;81;20104;-40
2022/01/10 11:40:08;;;;;;;69.65;32.15;;;;;;;0.45;100.00;99736.13;1684241;81;20977;-40
2022/01/10 11:42:45;;;;;;;66.77;32.15;;;;;;;0.43;100.00;99737.79;1711871;82;21118;-40
2022/01/10 11:45:29;;;;;;;66.92;33.80;;;;;;;0.42;100.00;99745.92;1721807;81;21040;-48
2022/01/10 11:48:14;;;;;;;73.10;32.80;;;;;;;0.43;100.00;99751.53;1726402;81;20981;-40
2022/01/10 11:50:42;;;;;;;73.47;33.73;;;;;;;0.43;100.00;99766.98;1729610;81;21032;-47
2022/01/10 11:53:16;;;;;;;77.42;33.28;;;;;;;0.41;100.00;99762.62;1727509;80;21120;-49
2022/01/10 11:55:53;;;;;;;72.03;33.40;;;;;;;0.39;100.00;99766.41;1705587;81;20978;-40
2022/01/10 11:58:23;;;;;;;79.77;33.83;;;;;;;0.38;100.00;99771.09;1728785;81;21501;-38
2022/01/10 12:01:06;;;;;;;65.62;32.95;;;;;;;0.38;100.00;99771.52;1728709;80;21893;-39
2022/01/10 12:03:33;;;;;;;63.70;30.00;;;;;;;0.40;100.00;99779.73;1725603;81;21544;-39
2022/01/10 12:06:24;;;;;;;59.23;26.42;;;;;;;0.42;100.00;99787.11;1727472;81;21144;-46
2022/01/10 12:09:27;;;;;;;48.85;23.92;;;;;;;0.43;100.00;99780.26;1724498;81;21033;-38
2022/01/10 12:12:02;;;;;;;53.80;25.37;;;;;;;0.39;100.00;99787.41;1725929;81;21135;-37
2022/01/10 12:14:42;;;;;;;49.18;24.72;;;;;;;0.35;100.00;99786.84;1725109;81;21588;-38
2022/01/10 12:17:14;;;;;;;46.23;24.18;;;;;;;0.36;100.00;99791.19;1724779;81;21022;-38
2022/01/10 12:20:01;;;;;;;;;;;;;;;0.37;100.00;99795.50;1727139;81;20965;-47
2022/01/10 12:22:39;;;;;;;43.83;22.85;;;;;;;0.37;100.00;99800.23;1726083;81;20147;-46
2022/01/10 12:29:11;;;;;;;51.98;25.40;;;;;;;0.32;100.00;99808.22;1687962;83;21035;-47
2022/01/10 12:36:02;;;;;;;41.60;21.27;;;;;;;0.21;100.00;99820.72;1667991;85;20991;-47
2022/01/10 12:38:50;;;;;;;49.77;24.70;;;;;;;0.18;100.00;99833.50;1729304;81;21036;-46
2022/01/10 12:41:56;;;;;;;47.10;23.80;;;;;;;0.14;100.00;99843.63;1728315;81;21017;-47
2022/01/10 12:44:46;;;;;;;42.20;22.35;;;;;;;0.11;100.00;99843.50;1730477;81;20969;-48
2022/01/10 12:47:25;;;;;;;43.65;21.35;;;;;;;0.11;100.00;99847.36;1730479;81;21553;-48
2022/01/10 12:49:59;;;;;;;39.65;20.77;;;;;;;0.10;100.00;99846.91;1728759;81;21025;-45
2022/01/10 12:52:26;;;;;;;41.37;21.25;;;;;;;0.09;100.00;99851.59;1726570;80;21042;-48
2022/01/10 12:54:59;;;;;;;42.83;20.62;;;;;;;0.08;100.00;99863.58;1728773;81;20978;-40
2022/01/10 12:57:25;;;;;;;40.52;20.72;;;;;;;0.06;100.00;99873.33;1730796;81;21713;-40
2022/01/10 12:59:52;;;;;;;41.85;22.40;;;;;;;0.01;100.00;99880.91;1691959;83;20984;-48
2022/01/10 13:02:20;;;;;;;41.48;21.82;;;;;;;-0.04;100.00;99880.74;1632029;84;21201;-49
2022/01/10 13:04:47;;;;;;;42.05;20.88;;;;;;;-0.05;100.00;99884.55;1720427;81;20943;-49
2022/01/10 13:07:25;;;;;;;41.95;20.88;;;;;;;-0.07;100.00;99884.48;1718978;80;21107;-47
2022/01/10 13:10:04;;;;;;;40.60;20.85;;;;;;;-0.09;100.00;99887.41;1715500;81;21007;-47
2022/01/10 13:12:34;;;;;;;38.58;19.55;;;;;;;-0.13;100.00;99889.40;1724564;81;21053;-48
2022/01/10 13:15:11;;;;;;;46.85;20.02;;;;;;;-0.18;100.00;99894.78;1734212;81;20945;-48
2022/01/10 13:17:39;;;;;;;44.23;22.75;;;;;;;-0.27;100.00;99896.63;1721753;81;21576;-47
2022/01/10 13:20:09;;;;;;;52.75;22.27;;;;;;;-0.35;100.00;99899.72;1731882;81;21537;-47
2022/01/10 13:22:58;;;;;;;52.25;23.60;;;;;;;-0.42;100.00;99903.75;1730852;81;21509;-46
2022/01/10 13:25:45;;;;;;;53.30;26.20;;;;;;;-0.48;100.00;99908.66;1708817;81;20999;-46
2022/01/10 13:28:13;;;;;;;52.17;27.40;;;;;;;-0.51;100.00;99913.70;1737319;81;21041;-47
2022/01/10 13:30:52;;;;;;;50.50;23.32;;;;;;;-0.54;100.00;99920.00;1736423;81;20970;-45
2022/01/10 13:33:20;;;;;;;44.95;22.62;;;;;;;-0.57;100.00;99922.47;1732581;81;21610;-44
2022/01/10 13:35:57;;;;;;;43.23;21.77;;;;;;;-0.58;100.00;99924.55;1700097;83;21031;-44
2022/01/10 13:38:27;;;;;;;39.70;21.42;;;;;;;-0.61;100.00;99923.16;1729903;81;21723;-47
2022/01/10 13:40:56;;;;;;;45.95;23.15;;;;;;;-0.65;100.00;99928.98;1731197;81;20942;-46
2022/01/10 13:43:30;;;;;;;45.83;21.50;;;;;;;-0.66;100.00;99928.52;1732807;81;21925;-46
2022/01/10 13:46:05;;;;;;;44.15;24.37;;;;;;;-0.66;100.00;99938.80;1741276;81;20970;-46
2022/01/10 13:48:38;;;;;;;39.40;21.95;;;;;;;-0.65;100.00;99945.69;1726065;81;21049;-47
2022/01/10 13:51:18;;;;;;;39.40;20.88;;;;;;;-0.63;100.00;99947.93;1736504;80;20974;-47
2022/01/10 13:53:47;;;;;;;38.55;22.07;;;;;;;-0.63;100.00;99952.66;1734932;81;21021;-40
2022/01/10 13:56:20;;;;;;;36.03;20.15;;;;;;;-0.61;100.00;99951.42;1736007;81;21506;-39
2022/01/10 13:58:53;;;;;;;;;;;;;;;-0.61;100.00;99948.86;1741082;81;21013;-47
2022/01/10 14:01:39;;;;;;;33.00;19.15;;;;;;;-0.60;100.00;99953.17;1737317;81;20148;-48
2022/01/10 14:04:26;;;;;;;45.20;23.12;;;;;;;-0.61;100.00;99951.02;1737093;82;21020;-41
2022/01/10 14:06:53;;;;;;;50.50;29.80;;;;;;;-0.59;100.00;99953.64;1737637;81;21054;-39
2022/01/10 14:09:22;;;;;;;54.27;29.80;;;;;;;-0.57;100.00;99957.16;1736889;81;21058;-48
2022/01/10 14:11:49;;;;;;;43.38;25.23;;;;;;;-0.55;100.00;99956.39;1746925;82;21048;-48
2022/01/10 14:14:16;;;;;;;35.20;20.97;;;;;;;-0.54;100.00;99954.28;1738510;82;21011;-48
2022/01/10 14:16:48;;;;;;;29.18;17.67;;;;;;;-0.50;100.00;99959.15;1737179;81;21055;-40
2022/01/10 14:19:11;;;;;;;34.98;18.80;;;;;;;-0.51;100.00;99955.24;1728733;82;20999;-47
2022/01/10 14:21:38;;;;;;;36.25;20.65;;;;;;;-0.52;100.00;99945.75;1736274;81;21102;-40
2022/01/10 14:24:05;;;;;;;37.93;22.30;;;;;;;-0.55;100.00;99949.97;1737465;82;21517;-40
2022/01/10 14:26:33;;;;;;;40.15;23.10;;;;;;;-0.56;100.00;99953.36;1737048;81;21583;-48
